sensor_id;sensor_type;location;lat;lon;timestamp;P1;durP1;ratioP1;P2;durP2;ratioP2
66957;SDS011;53892;43.258;-2.932;2022-10-16T00:00:36;11.00;;;2.95;;
66957;SDS011;53892;43.258;-2.932;2022-10-16T00:03:02;6.45;;;2.33;;
66957;SDS011;53892;43.258;-2.932;2022-10-16T00:05:29;6.82;;;2.47;;
66957;SDS011;53892;43.258;-2.932;2022-10-16T00:07:55;7.55;;;2.45;;
66957;SDS011;53892;43.258;-2.932;2022-10-16T00:10:21;11.80;;;3.47;;
66957;SDS011;53892;43.258;-2.932;2022-10-16T00:12:47;11.60;;;2.95;;
66957;SDS011;53892;43.258;-2.932;2022-10-16T00:15:14;10.32;;;2.80;;
66957;SDS011;53892;43.258;-2.932;2022-10-16T00:17:40;13.32;;;2.80;;
66957;SDS011;53892;43.258;-2.932;2022-10-16T00:20:06;10.65;;;2.15;;
66957;SDS011;53892;43.258;-2.932;2022-10-16T00:22:32;10.93;;;2.72;;
66957;SDS011;53892;43.258;-2.932;2022-10-16T00:24:59;10.98;;;2.65;;
66957;SDS011;53892;43.258;-2.932;2022-10-16T00:27:25;7.80;;;2.95;;
66957;SDS011;53892;43.258;-2.932;2022-10-16T00:29:51;5.85;;;2.13;;
66957;SDS011;53892;43.258;-2.932;2022-10-16T00:32:18;9.27;;;2.42;;
66957;SDS011;53892;43.258;-2.932;2022-10-16T00:34:44;7.55;;;2.90;;
66957;SDS011;53892;43.258;-2.932;2022-10-16T00:37:11;4.88;;;2.28;;
66957;SDS011;53892;43.258;-2.932;2022-10-16T00:39:37;6.93;;;2.90;;
66957;SDS011;53892;43.258;-2.932;2022-10-16T00:42:03;12.32;;;3.63;;
66957;SDS011;53892;43.258;-2.932;2022-10-16T00:44:49;10.38;;;3.28;;
66957;SDS011;53892;43.258;-2.932;2022-10-16T00:49:53;11.63;;;3.80;;
66957;SDS011;53892;43.258;-2.932;2022-10-16T00:52:21;8.32;;;3.53;;
66957;SDS011;53892;43.258;-2.932;2022-10-16T00:54:48;13.15;;;3.40;;
66957;SDS011;53892;43.258;-2.932;2022-10-16T00:57:15;10.88;;;3.58;;
66957;SDS011;53892;43.258;-2.932;2022-10-16T00:59:41;10.05;;;4.00;;
66957;SDS011;53892;43.258;-2.932;2022-10-16T01:02:09;11.45;;;4.00;;
66957;SDS011;53892;43.258;-2.932;2022-10-16T01:04:49;12.00;;;3.83;;
66957;SDS011;53892;43.258;-2.932;2022-10-16T01:10:09;10.30;;;3.67;;
66957;SDS011;53892;43.258;-2.932;2022-10-16T01:15:26;11.25;;;3.53;;
66957;SDS011;53892;43.258;-2.932;2022-10-16T01:18:16;9.25;;;2.88;;
66957;SDS011;53892;43.258;-2.932;2022-10-16T01:20:49;8.73;;;2.35;;
66957;SDS011;53892;43.258;-2.932;2022-10-16T01:23:21;9.77;;;2.78;;
66957;SDS011;53892;43.258;-2.932;2022-10-16T01:28:42;6.43;;;2.60;;
66957;SDS011;53892;43.258;-2.932;2022-10-16T01:31:10;8.15;;;2.92;;
66957;SDS011;53892;43.258;-2.932;2022-10-16T01:33:44;6.13;;;2.78;;
66957;SDS011;53892;43.258;-2.932;2022-10-16T01:36:15;13.38;;;3.92;;
66957;SDS011;53892;43.258;-2.932;2022-10-16T01:38:43;8.80;;;3.10;;
66957;SDS011;53892;43.258;-2.932;2022-10-16T01:41:21;12.98;;;4.18;;
66957;SDS011;53892;43.258;-2.932;2022-10-16T01:43:53;11.18;;;3.70;;
66957;SDS011;53892;43.258;-2.932;2022-10-16T01:46:22;8.07;;;3.60;;
66957;SDS011;53892;43.258;-2.932;2022-10-16T01:48:48;9.90;;;3.20;;
66957;SDS011;53892;43.258;-2.932;2022-10-16T01:51:15;5.85;;;3.22;;
66957;SDS011;53892;43.258;-2.932;2022-10-16T01:53:43;15.45;;;3.10;;
66957;SDS011;53892;43.258;-2.932;2022-10-16T01:56:12;8.23;;;3.00;;
66957;SDS011;53892;43.258;-2.932;2022-10-16T01:58:40;11.65;;;2.92;;
66957;SDS011;53892;43.258;-2.932;2022-10-16T02:01:08;13.85;;;3.30;;
66957;SDS011;53892;43.258;-2.932;2022-10-16T02:03:36;11.20;;;3.30;;
66957;SDS011;53892;43.258;-2.932;2022-10-16T02:06:03;10.70;;;3.58;;
66957;SDS011;53892;43.258;-2.932;2022-10-16T02:08:29;6.38;;;2.60;;
66957;SDS011;53892;43.258;-2.932;2022-10-16T02:10:56;14.52;;;3.20;;
66957;SDS011;53892;43.258;-2.932;2022-10-16T02:15:58;6.80;;;3.20;;
66957;SDS011;53892;43.258;-2.932;2022-10-16T02:18:25;10.15;;;3.28;;
66957;SDS011;53892;43.258;-2.932;2022-10-16T02:26:02;5.15;;;2.80;;
66957;SDS011;53892;43.258;-2.932;2022-10-16T02:28:40;9.05;;;3.22;;
66957;SDS011;53892;43.258;-2.932;2022-10-16T02:31:08;8.90;;;3.17;;
66957;SDS011;53892;43.258;-2.932;2022-10-16T02:33:35;4.32;;;2.58;;
66957;SDS011;53892;43.258;-2.932;2022-10-16T02:36:03;11.52;;;2.65;;
66957;SDS011;53892;43.258;-2.932;2022-10-16T02:38:29;9.48;;;2.90;;
66957;SDS011;53892;43.258;-2.932;2022-10-16T02:40:56;6.80;;;2.50;;
66957;SDS011;53892;43.258;-2.932;2022-10-16T02:43:22;6.78;;;2.22;;
66957;SDS011;53892;43.258;-2.932;2022-10-16T02:45:49;5.80;;;2.88;;
66957;SDS011;53892;43.258;-2.932;2022-10-16T02:48:15;4.70;;;2.40;;
66957;SDS011;53892;43.258;-2.932;2022-10-16T02:50:41;7.38;;;2.25;;
66957;SDS011;53892;43.258;-2.932;2022-10-16T02:53:07;5.70;;;2.10;;
66957;SDS011;53892;43.258;-2.932;2022-10-16T02:55:33;9.35;;;2.38;;
66957;SDS011;53892;43.258;-2.932;2022-10-16T02:57:59;4.70;;;2.65;;
66957;SDS011;53892;43.258;-2.932;2022-10-16T03:00:26;13.60;;;2.03;;
66957;SDS011;53892;43.258;-2.932;2022-10-16T03:02:52;7.30;;;2.25;;
66957;SDS011;53892;43.258;-2.932;2022-10-16T03:05:18;8.00;;;2.33;;
66957;SDS011;53892;43.258;-2.932;2022-10-16T03:07:44;11.85;;;2.40;;
66957;SDS011;53892;43.258;-2.932;2022-10-16T03:10:10;8.70;;;2.88;;
66957;SDS011;53892;43.258;-2.932;2022-10-16T03:12:36;12.70;;;2.38;;
66957;SDS011;53892;43.258;-2.932;2022-10-16T03:15:03;4.85;;;2.22;;
66957;SDS011;53892;43.258;-2.932;2022-10-16T03:17:31;10.18;;;2.28;;
66957;SDS011;53892;43.258;-2.932;2022-10-16T03:19:57;9.60;;;2.30;;
66957;SDS011;53892;43.258;-2.932;2022-10-16T03:22:23;9.57;;;2.00;;
66957;SDS011;53892;43.258;-2.932;2022-10-16T03:24:49;7.03;;;2.17;;
66957;SDS011;53892;43.258;-2.932;2022-10-16T03:27:15;9.00;;;2.85;;
66957;SDS011;53892;43.258;-2.932;2022-10-16T03:29:41;7.82;;;1.95;;
66957;SDS011;53892;43.258;-2.932;2022-10-16T03:32:07;8.70;;;2.20;;
66957;SDS011;53892;43.258;-2.932;2022-10-16T03:34:34;4.93;;;2.03;;
66957;SDS011;53892;43.258;-2.932;2022-10-16T03:37:00;4.40;;;1.65;;
66957;SDS011;53892;43.258;-2.932;2022-10-16T03:39:26;5.18;;;2.20;;
66957;SDS011;53892;43.258;-2.932;2022-10-16T03:41:52;7.68;;;2.08;;
66957;SDS011;53892;43.258;-2.932;2022-10-16T03:44:18;6.03;;;2.25;;
66957;SDS011;53892;43.258;-2.932;2022-10-16T03:46:44;6.97;;;2.20;;
66957;SDS011;53892;43.258;-2.932;2022-10-16T03:49:10;8.50;;;2.20;;
66957;SDS011;53892;43.258;-2.932;2022-10-16T03:51:36;8.25;;;2.60;;
66957;SDS011;53892;43.258;-2.932;2022-10-16T03:54:03;12.30;;;2.15;;
66957;SDS011;53892;43.258;-2.932;2022-10-16T03:56:29;5.25;;;2.42;;
66957;SDS011;53892;43.258;-2.932;2022-10-16T03:58:55;7.60;;;2.55;;
66957;SDS011;53892;43.258;-2.932;2022-10-16T04:01:21;8.93;;;2.13;;
66957;SDS011;53892;43.258;-2.932;2022-10-16T04:03:47;6.38;;;2.40;;
66957;SDS011;53892;43.258;-2.932;2022-10-16T04:06:13;6.78;;;2.40;;
66957;SDS011;53892;43.258;-2.932;2022-10-16T04:08:41;9.38;;;2.85;;
66957;SDS011;53892;43.258;-2.932;2022-10-16T04:11:07;11.32;;;2.97;;
66957;SDS011;53892;43.258;-2.932;2022-10-16T04:13:33;9.27;;;3.08;;
66957;SDS011;53892;43.258;-2.932;2022-10-16T04:16:00;10.38;;;4.45;;
66957;SDS011;53892;43.258;-2.932;2022-10-16T04:18:26;10.50;;;3.45;;
66957;SDS011;53892;43.258;-2.932;2022-10-16T04:20:52;10.23;;;5.10;;
66957;SDS011;53892;43.258;-2.932;2022-10-16T04:23:19;8.77;;;4.55;;
66957;SDS011;53892;43.258;-2.932;2022-10-16T04:25:45;22.20;;;5.40;;
66957;SDS011;53892;43.258;-2.932;2022-10-16T04:28:11;3.03;;;1.85;;
66957;SDS011;53892;43.258;-2.932;2022-10-16T04:30:38;13.60;;;2.80;;
66957;SDS011;53892;43.258;-2.932;2022-10-16T04:33:04;9.25;;;3.40;;
66957;SDS011;53892;43.258;-2.932;2022-10-16T04:35:30;7.85;;;2.40;;
66957;SDS011;53892;43.258;-2.932;2022-10-16T04:37:59;5.18;;;2.30;;
66957;SDS011;53892;43.258;-2.932;2022-10-16T04:40:25;7.32;;;2.05;;
66957;SDS011;53892;43.258;-2.932;2022-10-16T04:42:52;4.50;;;1.67;;
66957;SDS011;53892;43.258;-2.932;2022-10-16T04:45:18;4.75;;;1.92;;
66957;SDS011;53892;43.258;-2.932;2022-10-16T04:47:44;16.60;;;2.92;;
66957;SDS011;53892;43.258;-2.932;2022-10-16T04:50:10;8.65;;;2.70;;
66957;SDS011;53892;43.258;-2.932;2022-10-16T04:52:36;8.98;;;1.98;;
66957;SDS011;53892;43.258;-2.932;2022-10-16T04:55:02;5.82;;;1.80;;
66957;SDS011;53892;43.258;-2.932;2022-10-16T04:57:29;7.63;;;1.50;;
66957;SDS011;53892;43.258;-2.932;2022-10-16T04:59:55;9.38;;;1.13;;
66957;SDS011;53892;43.258;-2.932;2022-10-16T05:02:21;6.07;;;1.33;;
66957;SDS011;53892;43.258;-2.932;2022-10-16T05:04:48;3.78;;;0.70;;
66957;SDS011;53892;43.258;-2.932;2022-10-16T05:07:14;5.35;;;0.70;;
66957;SDS011;53892;43.258;-2.932;2022-10-16T05:09:40;2.33;;;0.73;;
66957;SDS011;53892;43.258;-2.932;2022-10-16T05:12:06;6.30;;;1.13;;
66957;SDS011;53892;43.258;-2.932;2022-10-16T05:14:32;2.30;;;0.50;;
66957;SDS011;53892;43.258;-2.932;2022-10-16T05:16:59;2.90;;;0.50;;
66957;SDS011;53892;43.258;-2.932;2022-10-16T05:19:25;4.93;;;0.60;;
66957;SDS011;53892;43.258;-2.932;2022-10-16T05:21:51;1.80;;;0.40;;
66957;SDS011;53892;43.258;-2.932;2022-10-16T05:24:17;2.72;;;0.38;;
66957;SDS011;53892;43.258;-2.932;2022-10-16T05:26:44;3.25;;;0.52;;
66957;SDS011;53892;43.258;-2.932;2022-10-16T05:29:10;3.22;;;0.30;;
66957;SDS011;53892;43.258;-2.932;2022-10-16T05:31:36;2.50;;;0.32;;
66957;SDS011;53892;43.258;-2.932;2022-10-16T05:34:02;2.85;;;0.30;;
66957;SDS011;53892;43.258;-2.932;2022-10-16T05:36:28;5.53;;;0.50;;
66957;SDS011;53892;43.258;-2.932;2022-10-16T05:38:54;1.63;;;0.45;;
66957;SDS011;53892;43.258;-2.932;2022-10-16T05:41:20;2.83;;;0.32;;
66957;SDS011;53892;43.258;-2.932;2022-10-16T05:43:48;1.90;;;0.20;;
66957;SDS011;53892;43.258;-2.932;2022-10-16T05:46:15;1.70;;;0.50;;
66957;SDS011;53892;43.258;-2.932;2022-10-16T05:48:41;1.25;;;0.30;;
66957;SDS011;53892;43.258;-2.932;2022-10-16T05:51:09;0.90;;;0.35;;
66957;SDS011;53892;43.258;-2.932;2022-10-16T05:53:36;1.45;;;0.57;;
66957;SDS011;53892;43.258;-2.932;2022-10-16T05:56:02;10.77;;;1.10;;
66957;SDS011;53892;43.258;-2.932;2022-10-16T05:58:30;9.95;;;1.70;;
66957;SDS011;53892;43.258;-2.932;2022-10-16T06:01:01;6.72;;;0.70;;
66957;SDS011;53892;43.258;-2.932;2022-10-16T06:03:27;1.10;;;0.40;;
66957;SDS011;53892;43.258;-2.932;2022-10-16T06:05:53;4.63;;;0.60;;
66957;SDS011;53892;43.258;-2.932;2022-10-16T06:08:20;1.23;;;0.47;;
66957;SDS011;53892;43.258;-2.932;2022-10-16T06:10:48;1.85;;;0.50;;
66957;SDS011;53892;43.258;-2.932;2022-10-16T06:13:14;2.15;;;0.40;;
66957;SDS011;53892;43.258;-2.932;2022-10-16T06:15:42;2.38;;;0.30;;
66957;SDS011;53892;43.258;-2.932;2022-10-16T06:18:09;1.10;;;0.30;;
66957;SDS011;53892;43.258;-2.932;2022-10-16T06:20:36;2.67;;;0.50;;
66957;SDS011;53892;43.258;-2.932;2022-10-16T06:23:02;4.75;;;0.50;;
66957;SDS011;53892;43.258;-2.932;2022-10-16T06:25:29;0.95;;;0.40;;
66957;SDS011;53892;43.258;-2.932;2022-10-16T06:27:56;3.53;;;0.57;;
66957;SDS011;53892;43.258;-2.932;2022-10-16T06:30:22;3.47;;;0.50;;
66957;SDS011;53892;43.258;-2.932;2022-10-16T06:32:48;1.55;;;0.40;;
66957;SDS011;53892;43.258;-2.932;2022-10-16T06:35:14;4.88;;;0.40;;
66957;SDS011;53892;43.258;-2.932;2022-10-16T06:37:40;1.70;;;0.32;;
66957;SDS011;53892;43.258;-2.932;2022-10-16T06:40:06;2.00;;;0.47;;
66957;SDS011;53892;43.258;-2.932;2022-10-16T06:42:32;1.73;;;0.55;;
66957;SDS011;53892;43.258;-2.932;2022-10-16T06:44:58;1.77;;;0.40;;
66957;SDS011;53892;43.258;-2.932;2022-10-16T06:47:25;2.72;;;0.50;;
66957;SDS011;53892;43.258;-2.932;2022-10-16T06:49:51;3.33;;;0.50;;
66957;SDS011;53892;43.258;-2.932;2022-10-16T06:52:17;3.20;;;0.20;;
66957;SDS011;53892;43.258;-2.932;2022-10-16T06:54:43;0.73;;;0.30;;
66957;SDS011;53892;43.258;-2.932;2022-10-16T06:57:09;5.70;;;0.40;;
66957;SDS011;53892;43.258;-2.932;2022-10-16T06:59:35;1.25;;;0.40;;
66957;SDS011;53892;43.258;-2.932;2022-10-16T07:02:01;3.08;;;0.60;;
66957;SDS011;53892;43.258;-2.932;2022-10-16T07:04:27;6.70;;;0.50;;
66957;SDS011;53892;43.258;-2.932;2022-10-16T07:06:53;2.47;;;0.60;;
66957;SDS011;53892;43.258;-2.932;2022-10-16T07:09:19;4.20;;;0.50;;
66957;SDS011;53892;43.258;-2.932;2022-10-16T07:11:45;3.53;;;0.50;;
66957;SDS011;53892;43.258;-2.932;2022-10-16T07:14:15;3.75;;;0.40;;
66957;SDS011;53892;43.258;-2.932;2022-10-16T07:16:42;2.28;;;0.43;;
66957;SDS011;53892;43.258;-2.932;2022-10-16T07:19:08;1.45;;;0.35;;
66957;SDS011;53892;43.258;-2.932;2022-10-16T07:21:36;0.68;;;0.30;;
66957;SDS011;53892;43.258;-2.932;2022-10-16T07:24:03;4.93;;;0.50;;
66957;SDS011;53892;43.258;-2.932;2022-10-16T07:26:30;3.97;;;0.40;;
66957;SDS011;53892;43.258;-2.932;2022-10-16T07:28:57;1.83;;;0.40;;
66957;SDS011;53892;43.258;-2.932;2022-10-16T07:31:23;5.57;;;0.30;;
66957;SDS011;53892;43.258;-2.932;2022-10-16T07:33:50;8.05;;;0.40;;
66957;SDS011;53892;43.258;-2.932;2022-10-16T07:36:17;4.53;;;0.30;;
66957;SDS011;53892;43.258;-2.932;2022-10-16T07:38:44;4.40;;;0.30;;
66957;SDS011;53892;43.258;-2.932;2022-10-16T07:41:14;5.07;;;0.55;;
66957;SDS011;53892;43.258;-2.932;2022-10-16T07:43:44;3.75;;;0.40;;
66957;SDS011;53892;43.258;-2.932;2022-10-16T07:46:10;4.00;;;0.47;;
66957;SDS011;53892;43.258;-2.932;2022-10-16T07:48:37;4.10;;;0.30;;
66957;SDS011;53892;43.258;-2.932;2022-10-16T07:51:03;3.25;;;0.52;;
66957;SDS011;53892;43.258;-2.932;2022-10-16T07:53:30;1.85;;;0.65;;
66957;SDS011;53892;43.258;-2.932;2022-10-16T07:55:57;3.15;;;0.45;;
66957;SDS011;53892;43.258;-2.932;2022-10-16T07:58:24;3.58;;;0.30;;
66957;SDS011;53892;43.258;-2.932;2022-10-16T08:00:50;5.35;;;0.40;;
66957;SDS011;53892;43.258;-2.932;2022-10-16T08:03:16;2.00;;;0.40;;
66957;SDS011;53892;43.258;-2.932;2022-10-16T08:05:42;6.50;;;0.75;;
66957;SDS011;53892;43.258;-2.932;2022-10-16T08:08:11;7.40;;;0.40;;
66957;SDS011;53892;43.258;-2.932;2022-10-16T08:10:38;6.68;;;0.73;;
66957;SDS011;53892;43.258;-2.932;2022-10-16T08:13:04;4.90;;;0.85;;
66957;SDS011;53892;43.258;-2.932;2022-10-16T08:15:30;2.30;;;0.70;;
66957;SDS011;53892;43.258;-2.932;2022-10-16T08:17:57;3.08;;;0.45;;
66957;SDS011;53892;43.258;-2.932;2022-10-16T08:20:24;1.63;;;0.40;;
66957;SDS011;53892;43.258;-2.932;2022-10-16T08:22:50;3.67;;;0.30;;
66957;SDS011;53892;43.258;-2.932;2022-10-16T08:25:16;5.82;;;0.47;;
66957;SDS011;53892;43.258;-2.932;2022-10-16T08:27:42;5.97;;;0.40;;
66957;SDS011;53892;43.258;-2.932;2022-10-16T08:30:09;5.00;;;0.50;;
66957;SDS011;53892;43.258;-2.932;2022-10-16T08:32:36;5.55;;;0.70;;
66957;SDS011;53892;43.258;-2.932;2022-10-16T08:35:02;7.70;;;0.93;;
66957;SDS011;53892;43.258;-2.932;2022-10-16T08:37:32;2.70;;;0.50;;
66957;SDS011;53892;43.258;-2.932;2022-10-16T08:39:58;4.10;;;0.60;;
66957;SDS011;53892;43.258;-2.932;2022-10-16T08:42:37;3.17;;;0.50;;
66957;SDS011;53892;43.258;-2.932;2022-10-16T08:50:14;6.38;;;0.57;;
66957;SDS011;53892;43.258;-2.932;2022-10-16T08:52:43;4.38;;;0.75;;
66957;SDS011;53892;43.258;-2.932;2022-10-16T08:55:28;3.50;;;0.80;;
66957;SDS011;53892;43.258;-2.932;2022-10-16T08:57:55;5.00;;;1.08;;
66957;SDS011;53892;43.258;-2.932;2022-10-16T09:00:21;5.93;;;1.25;;
66957;SDS011;53892;43.258;-2.932;2022-10-16T09:08:34;4.25;;;1.00;;
66957;SDS011;53892;43.258;-2.932;2022-10-16T09:11:08;1.25;;;0.38;;
66957;SDS011;53892;43.258;-2.932;2022-10-16T09:14:22;2.83;;;0.60;;
66957;SDS011;53892;43.258;-2.932;2022-10-16T09:16:24;4.45;;;0.50;;
66957;SDS011;53892;43.258;-2.932;2022-10-16T09:21:35;4.10;;;0.93;;
66957;SDS011;53892;43.258;-2.932;2022-10-16T09:24:15;8.15;;;0.63;;
66957;SDS011;53892;43.258;-2.932;2022-10-16T09:26:42;9.85;;;0.60;;
66957;SDS011;53892;43.258;-2.932;2022-10-16T09:29:10;2.58;;;0.30;;
66957;SDS011;53892;43.258;-2.932;2022-10-16T09:31:37;4.72;;;0.43;;
66957;SDS011;53892;43.258;-2.932;2022-10-16T09:34:03;4.05;;;0.40;;
66957;SDS011;53892;43.258;-2.932;2022-10-16T09:36:32;8.13;;;0.40;;
66957;SDS011;53892;43.258;-2.932;2022-10-16T09:39:05;5.68;;;0.40;;
66957;SDS011;53892;43.258;-2.932;2022-10-16T09:41:33;6.65;;;0.40;;
66957;SDS011;53892;43.258;-2.932;2022-10-16T09:44:00;5.82;;;0.52;;
66957;SDS011;53892;43.258;-2.932;2022-10-16T09:46:28;4.78;;;0.40;;
66957;SDS011;53892;43.258;-2.932;2022-10-16T09:49:00;5.43;;;0.60;;
66957;SDS011;53892;43.258;-2.932;2022-10-16T09:51:32;9.98;;;0.82;;
66957;SDS011;53892;43.258;-2.932;2022-10-16T09:54:13;5.97;;;0.40;;
66957;SDS011;53892;43.258;-2.932;2022-10-16T09:56:39;8.40;;;0.43;;
66957;SDS011;53892;43.258;-2.932;2022-10-16T09:59:13;5.15;;;0.40;;
66957;SDS011;53892;43.258;-2.932;2022-10-16T10:01:40;7.03;;;0.73;;
66957;SDS011;53892;43.258;-2.932;2022-10-16T10:04:07;3.10;;;0.40;;
66957;SDS011;53892;43.258;-2.932;2022-10-16T10:06:44;8.65;;;0.88;;
66957;SDS011;53892;43.258;-2.932;2022-10-16T10:14:15;11.32;;;1.40;;
66957;SDS011;53892;43.258;-2.932;2022-10-16T10:16:42;14.23;;;0.80;;
66957;SDS011;53892;43.258;-2.932;2022-10-16T10:19:15;9.43;;;0.70;;
66957;SDS011;53892;43.258;-2.932;2022-10-16T10:21:42;12.20;;;0.82;;
66957;SDS011;53892;43.258;-2.932;2022-10-16T10:24:12;10.23;;;1.52;;
66957;SDS011;53892;43.258;-2.932;2022-10-16T10:26:38;5.88;;;1.10;;
66957;SDS011;53892;43.258;-2.932;2022-10-16T10:32:36;7.07;;;0.73;;
66957;SDS011;53892;43.258;-2.932;2022-10-16T10:39:52;11.43;;;1.33;;
66957;SDS011;53892;43.258;-2.932;2022-10-16T10:42:25;3.47;;;0.57;;
66957;SDS011;53892;43.258;-2.932;2022-10-16T10:55:42;13.07;;;1.35;;
66957;SDS011;53892;43.258;-2.932;2022-10-16T11:05:43;14.50;;;0.60;;
66957;SDS011;53892;43.258;-2.932;2022-10-16T11:08:19;9.65;;;0.90;;
66957;SDS011;53892;43.258;-2.932;2022-10-16T11:10:57;10.55;;;1.00;;
66957;SDS011;53892;43.258;-2.932;2022-10-16T11:13:27;12.05;;;0.73;;
66957;SDS011;53892;43.258;-2.932;2022-10-16T11:15:57;12.13;;;1.65;;
66957;SDS011;53892;43.258;-2.932;2022-10-16T11:18:26;14.02;;;1.10;;
66957;SDS011;53892;43.258;-2.932;2022-10-16T11:20:57;13.70;;;0.80;;
66957;SDS011;53892;43.258;-2.932;2022-10-16T11:25:56;10.55;;;2.65;;
66957;SDS011;53892;43.258;-2.932;2022-10-16T11:28:25;15.15;;;1.33;;
66957;SDS011;53892;43.258;-2.932;2022-10-16T11:31:07;12.48;;;1.10;;
66957;SDS011;53892;43.258;-2.932;2022-10-16T11:33:39;15.23;;;1.17;;
66957;SDS011;53892;43.258;-2.932;2022-10-16T11:36:17;7.80;;;0.65;;
66957;SDS011;53892;43.258;-2.932;2022-10-16T11:44:32;3.83;;;0.47;;
66957;SDS011;53892;43.258;-2.932;2022-10-16T11:46:32;6.32;;;0.65;;
66957;SDS011;53892;43.258;-2.932;2022-10-16T11:49:15;6.90;;;0.60;;
66957;SDS011;53892;43.258;-2.932;2022-10-16T11:54:15;8.05;;;0.60;;
66957;SDS011;53892;43.258;-2.932;2022-10-16T11:56:45;4.97;;;0.60;;
66957;SDS011;53892;43.258;-2.932;2022-10-16T11:59:17;5.35;;;1.27;;
66957;SDS011;53892;43.258;-2.932;2022-10-16T12:01:48;13.63;;;0.85;;
66957;SDS011;53892;43.258;-2.932;2022-10-16T12:04:21;9.65;;;0.77;;
66957;SDS011;53892;43.258;-2.932;2022-10-16T12:07:02;6.57;;;0.98;;
66957;SDS011;53892;43.258;-2.932;2022-10-16T12:09:31;6.57;;;1.15;;
66957;SDS011;53892;43.258;-2.932;2022-10-16T12:11:58;7.30;;;0.50;;
66957;SDS011;53892;43.258;-2.932;2022-10-16T12:17:01;8.15;;;0.70;;
66957;SDS011;53892;43.258;-2.932;2022-10-16T12:19:31;4.25;;;0.50;;
66957;SDS011;53892;43.258;-2.932;2022-10-16T12:21:58;3.75;;;0.50;;
66957;SDS011;53892;43.258;-2.932;2022-10-16T12:24:33;9.15;;;0.80;;
66957;SDS011;53892;43.258;-2.932;2022-10-16T12:27:00;7.25;;;0.82;;
66957;SDS011;53892;43.258;-2.932;2022-10-16T12:29:34;5.90;;;0.90;;
66957;SDS011;53892;43.258;-2.932;2022-10-16T12:32:02;4.88;;;0.70;;
66957;SDS011;53892;43.258;-2.932;2022-10-16T12:37:07;6.68;;;0.60;;
66957;SDS011;53892;43.258;-2.932;2022-10-16T12:39:34;5.88;;;0.95;;
66957;SDS011;53892;43.258;-2.932;2022-10-16T12:42:06;6.80;;;0.43;;
66957;SDS011;53892;43.258;-2.932;2022-10-16T12:44:44;5.55;;;0.50;;
66957;SDS011;53892;43.258;-2.932;2022-10-16T12:47:34;7.25;;;0.60;;
66957;SDS011;53892;43.258;-2.932;2022-10-16T12:50:01;7.05;;;0.60;;
66957;SDS011;53892;43.258;-2.932;2022-10-16T12:52:31;10.63;;;0.82;;
66957;SDS011;53892;43.258;-2.932;2022-10-16T12:55:01;13.32;;;1.60;;
66957;SDS011;53892;43.258;-2.932;2022-10-16T13:07:34;11.98;;;2.40;;
66957;SDS011;53892;43.258;-2.932;2022-10-16T13:17:56;8.25;;;1.55;;
66957;SDS011;53892;43.258;-2.932;2022-10-16T13:23:05;5.78;;;0.82;;
66957;SDS011;53892;43.258;-2.932;2022-10-16T13:28:05;20.80;;;3.03;;
66957;SDS011;53892;43.258;-2.932;2022-10-16T13:30:34;15.90;;;1.90;;
66957;SDS011;53892;43.258;-2.932;2022-10-16T13:35:29;17.98;;;2.50;;
66957;SDS011;53892;43.258;-2.932;2022-10-16T13:38:11;18.50;;;3.25;;
66957;SDS011;53892;43.258;-2.932;2022-10-16T13:40:47;16.52;;;2.80;;
66957;SDS011;53892;43.258;-2.932;2022-10-16T13:43:14;15.63;;;2.58;;
66957;SDS011;53892;43.258;-2.932;2022-10-16T13:45:40;28.15;;;3.60;;
66957;SDS011;53892;43.258;-2.932;2022-10-16T13:48:09;19.65;;;3.35;;
66957;SDS011;53892;43.258;-2.932;2022-10-16T13:50:39;20.83;;;3.28;;
66957;SDS011;53892;43.258;-2.932;2022-10-16T13:53:05;14.90;;;3.13;;
66957;SDS011;53892;43.258;-2.932;2022-10-16T13:55:32;12.43;;;1.70;;
66957;SDS011;53892;43.258;-2.932;2022-10-16T13:58:08;9.50;;;2.40;;
66957;SDS011;53892;43.258;-2.932;2022-10-16T14:00:34;17.00;;;3.08;;
66957;SDS011;53892;43.258;-2.932;2022-10-16T14:03:11;28.63;;;3.97;;
66957;SDS011;53892;43.258;-2.932;2022-10-16T14:05:52;15.55;;;2.20;;
66957;SDS011;53892;43.258;-2.932;2022-10-16T14:08:19;13.48;;;1.88;;
66957;SDS011;53892;43.258;-2.932;2022-10-16T14:10:52;9.15;;;1.42;;
66957;SDS011;53892;43.258;-2.932;2022-10-16T14:13:28;5.65;;;1.40;;
66957;SDS011;53892;43.258;-2.932;2022-10-16T14:15:55;10.00;;;1.58;;
66957;SDS011;53892;43.258;-2.932;2022-10-16T14:18:28;11.65;;;2.00;;
66957;SDS011;53892;43.258;-2.932;2022-10-16T14:20:55;5.80;;;1.40;;
66957;SDS011;53892;43.258;-2.932;2022-10-16T14:23:29;5.35;;;1.15;;
66957;SDS011;53892;43.258;-2.932;2022-10-16T14:28:38;6.03;;;2.03;;
66957;SDS011;53892;43.258;-2.932;2022-10-16T14:31:25;10.68;;;2.30;;
66957;SDS011;53892;43.258;-2.932;2022-10-16T14:33:51;4.07;;;1.50;;
66957;SDS011;53892;43.258;-2.932;2022-10-16T14:36:17;8.30;;;1.80;;
66957;SDS011;53892;43.258;-2.932;2022-10-16T14:41:27;7.38;;;1.52;;
66957;SDS011;53892;43.258;-2.932;2022-10-16T14:43:54;5.03;;;1.35;;
66957;SDS011;53892;43.258;-2.932;2022-10-16T14:46:21;14.98;;;2.70;;
66957;SDS011;53892;43.258;-2.932;2022-10-16T14:48:52;14.20;;;2.63;;
66957;SDS011;53892;43.258;-2.932;2022-10-16T14:51:21;6.20;;;1.77;;
66957;SDS011;53892;43.258;-2.932;2022-10-16T14:53:47;13.65;;;1.73;;
66957;SDS011;53892;43.258;-2.932;2022-10-16T14:56:20;7.25;;;1.60;;
66957;SDS011;53892;43.258;-2.932;2022-10-16T14:58:47;11.60;;;1.55;;
66957;SDS011;53892;43.258;-2.932;2022-10-16T15:01:14;5.30;;;1.80;;
66957;SDS011;53892;43.258;-2.932;2022-10-16T15:03:40;9.98;;;3.47;;
66957;SDS011;53892;43.258;-2.932;2022-10-16T15:06:10;14.35;;;2.28;;
66957;SDS011;53892;43.258;-2.932;2022-10-16T15:08:37;10.80;;;1.90;;
66957;SDS011;53892;43.258;-2.932;2022-10-16T15:11:03;9.85;;;2.38;;
66957;SDS011;53892;43.258;-2.932;2022-10-16T15:13:29;8.43;;;2.53;;
66957;SDS011;53892;43.258;-2.932;2022-10-16T15:15:55;12.48;;;2.35;;
66957;SDS011;53892;43.258;-2.932;2022-10-16T15:18:21;11.10;;;2.72;;
66957;SDS011;53892;43.258;-2.932;2022-10-16T15:20:48;11.93;;;1.67;;
66957;SDS011;53892;43.258;-2.932;2022-10-16T15:23:16;14.20;;;2.42;;
66957;SDS011;53892;43.258;-2.932;2022-10-16T15:28:12;14.88;;;2.13;;
66957;SDS011;53892;43.258;-2.932;2022-10-16T15:30:38;8.57;;;2.50;;
66957;SDS011;53892;43.258;-2.932;2022-10-16T15:33:05;14.85;;;2.92;;
66957;SDS011;53892;43.258;-2.932;2022-10-16T15:35:36;27.70;;;3.60;;
66957;SDS011;53892;43.258;-2.932;2022-10-16T15:38:02;15.77;;;2.70;;
66957;SDS011;53892;43.258;-2.932;2022-10-16T15:40:28;9.10;;;2.42;;
66957;SDS011;53892;43.258;-2.932;2022-10-16T15:42:54;11.77;;;2.67;;
66957;SDS011;53892;43.258;-2.932;2022-10-16T15:45:20;16.63;;;3.35;;
66957;SDS011;53892;43.258;-2.932;2022-10-16T15:47:46;14.43;;;3.50;;
66957;SDS011;53892;43.258;-2.932;2022-10-16T15:50:13;15.35;;;3.35;;
66957;SDS011;53892;43.258;-2.932;2022-10-16T15:52:40;9.20;;;2.45;;
66957;SDS011;53892;43.258;-2.932;2022-10-16T15:55:10;11.55;;;2.80;;
66957;SDS011;53892;43.258;-2.932;2022-10-16T15:57:37;11.38;;;1.80;;
66957;SDS011;53892;43.258;-2.932;2022-10-16T16:00:09;13.52;;;2.92;;
66957;SDS011;53892;43.258;-2.932;2022-10-16T16:02:35;11.88;;;2.45;;
66957;SDS011;53892;43.258;-2.932;2022-10-16T16:05:02;8.07;;;1.98;;
66957;SDS011;53892;43.258;-2.932;2022-10-16T16:07:31;5.80;;;1.20;;
66957;SDS011;53892;43.258;-2.932;2022-10-16T16:09:58;9.30;;;1.67;;
66957;SDS011;53892;43.258;-2.932;2022-10-16T16:12:24;11.45;;;2.28;;
66957;SDS011;53892;43.258;-2.932;2022-10-16T16:14:50;5.93;;;1.63;;
66957;SDS011;53892;43.258;-2.932;2022-10-16T16:17:16;13.82;;;1.60;;
66957;SDS011;53892;43.258;-2.932;2022-10-16T16:19:43;11.18;;;2.15;;
66957;SDS011;53892;43.258;-2.932;2022-10-16T16:22:09;19.38;;;2.97;;
66957;SDS011;53892;43.258;-2.932;2022-10-16T16:24:35;22.00;;;3.13;;
66957;SDS011;53892;43.258;-2.932;2022-10-16T16:27:01;12.82;;;2.60;;
66957;SDS011;53892;43.258;-2.932;2022-10-16T16:29:27;16.70;;;3.25;;